sensor_id;sensor_type;location;lat;lon;timestamp;P1;durP1;ratioP1;P2;durP2;ratioP2
35496;SDS011;21609;49.298;6.844;2022-11-27T00:01:07;2.67;;;2.45;;
35496;SDS011;21609;49.298;6.844;2022-11-27T00:03:37;2.30;;;2.10;;
35496;SDS011;21609;49.298;6.844;2022-11-27T00:06:03;2.22;;;2.00;;
35496;SDS011;21609;49.298;6.844;2022-11-27T00:08:29;2.30;;;2.10;;
35496;SDS011;21609;49.298;6.844;2022-11-27T00:10:55;2.80;;;2.25;;
35496;SDS011;21609;49.298;6.844;2022-11-27T00:13:20;2.90;;;2.70;;
35496;SDS011;21609;49.298;6.844;2022-11-27T00:15:46;2.55;;;2.22;;
35496;SDS011;21609;49.298;6.844;2022-11-27T00:18:12;2.63;;;2.03;;
35496;SDS011;21609;49.298;6.844;2022-11-27T00:20:37;4.10;;;2.50;;
35496;SDS011;21609;49.298;6.844;2022-11-27T00:23:03;2.60;;;2.40;;
35496;SDS011;21609;49.298;6.844;2022-11-27T00:25:29;2.53;;;2.25;;
35496;SDS011;21609;49.298;6.844;2022-11-27T00:27:54;2.90;;;2.20;;
35496;SDS011;21609;49.298;6.844;2022-11-27T00:30:20;3.30;;;2.33;;
35496;SDS011;21609;49.298;6.844;2022-11-27T00:32:46;2.35;;;2.15;;
35496;SDS011;21609;49.298;6.844;2022-11-27T00:35:11;2.50;;;2.30;;
35496;SDS011;21609;49.298;6.844;2022-11-27T00:37:37;2.58;;;2.38;;
35496;SDS011;21609;49.298;6.844;2022-11-27T00:40:02;2.30;;;2.08;;
35496;SDS011;21609;49.298;6.844;2022-11-27T00:42:28;2.42;;;2.08;;
35496;SDS011;21609;49.298;6.844;2022-11-27T00:44:54;2.97;;;2.50;;
35496;SDS011;21609;49.298;6.844;2022-11-27T00:47:20;2.40;;;2.20;;
35496;SDS011;21609;49.298;6.844;2022-11-27T00:49:45;2.47;;;2.28;;
35496;SDS011;21609;49.298;6.844;2022-11-27T00:52:11;2.33;;;2.13;;
35496;SDS011;21609;49.298;6.844;2022-11-27T00:54:36;3.58;;;2.92;;
35496;SDS011;21609;49.298;6.844;2022-11-27T00:57:02;2.35;;;2.15;;
35496;SDS011;21609;49.298;6.844;2022-11-27T00:59:28;2.95;;;1.90;;
35496;SDS011;21609;49.298;6.844;2022-11-27T01:01:54;2.08;;;1.92;;
35496;SDS011;21609;49.298;6.844;2022-11-27T01:04:19;2.33;;;2.13;;
35496;SDS011;21609;49.298;6.844;2022-11-27T01:06:45;3.78;;;2.53;;
35496;SDS011;21609;49.298;6.844;2022-11-27T01:09:13;2.95;;;2.20;;
35496;SDS011;21609;49.298;6.844;2022-11-27T01:11:40;3.63;;;1.98;;
35496;SDS011;21609;49.298;6.844;2022-11-27T01:14:09;2.65;;;2.45;;
35496;SDS011;21609;49.298;6.844;2022-11-27T01:16:37;1.83;;;1.73;;
35496;SDS011;21609;49.298;6.844;2022-11-27T01:19:03;2.38;;;2.17;;
35496;SDS011;21609;49.298;6.844;2022-11-27T01:21:30;2.15;;;1.95;;
35496;SDS011;21609;49.298;6.844;2022-11-27T01:23:59;2.35;;;1.95;;
35496;SDS011;21609;49.298;6.844;2022-11-27T01:26:25;2.25;;;2.05;;
35496;SDS011;21609;49.298;6.844;2022-11-27T01:28:52;2.25;;;2.05;;
35496;SDS011;21609;49.298;6.844;2022-11-27T01:31:20;1.90;;;1.70;;
35496;SDS011;21609;49.298;6.844;2022-11-27T01:33:51;2.72;;;2.53;;
35496;SDS011;21609;49.298;6.844;2022-11-27T01:36:18;2.10;;;1.92;;
35496;SDS011;21609;49.298;6.844;2022-11-27T01:38:44;2.92;;;2.22;;
35496;SDS011;21609;49.298;6.844;2022-11-27T01:51:40;2.60;;;2.38;;
35496;SDS011;21609;49.298;6.844;2022-11-27T01:54:06;2.35;;;2.15;;
35496;SDS011;21609;49.298;6.844;2022-11-27T01:56:33;2.15;;;1.80;;
35496;SDS011;21609;49.298;6.844;2022-11-27T01:58:59;2.10;;;1.95;;
35496;SDS011;21609;49.298;6.844;2022-11-27T02:01:26;2.30;;;2.10;;
35496;SDS011;21609;49.298;6.844;2022-11-27T02:03:52;2.30;;;2.10;;
35496;SDS011;21609;49.298;6.844;2022-11-27T02:06:21;3.75;;;2.92;;
35496;SDS011;21609;49.298;6.844;2022-11-27T02:08:48;2.33;;;2.13;;
35496;SDS011;21609;49.298;6.844;2022-11-27T02:11:18;3.35;;;2.65;;
35496;SDS011;21609;49.298;6.844;2022-11-27T02:13:52;2.55;;;2.10;;
35496;SDS011;21609;49.298;6.844;2022-11-27T02:19:01;2.35;;;1.88;;
35496;SDS011;21609;49.298;6.844;2022-11-27T02:21:59;2.17;;;1.88;;
35496;SDS011;21609;49.298;6.844;2022-11-27T02:30:21;2.63;;;2.15;;
35496;SDS011;21609;49.298;6.844;2022-11-27T02:32:57;2.75;;;2.10;;
35496;SDS011;21609;49.298;6.844;2022-11-27T02:38:06;2.38;;;2.17;;
35496;SDS011;21609;49.298;6.844;2022-11-27T02:40:38;2.70;;;2.38;;
35496;SDS011;21609;49.298;6.844;2022-11-27T02:45:59;3.47;;;2.88;;
35496;SDS011;21609;49.298;6.844;2022-11-27T02:48:32;2.05;;;1.95;;
35496;SDS011;21609;49.298;6.844;2022-11-27T02:51:01;2.17;;;1.98;;
35496;SDS011;21609;49.298;6.844;2022-11-27T02:53:35;2.00;;;1.80;;
35496;SDS011;21609;49.298;6.844;2022-11-27T02:56:14;2.95;;;2.65;;
35496;SDS011;21609;49.298;6.844;2022-11-27T02:58:43;2.42;;;2.22;;
35496;SDS011;21609;49.298;6.844;2022-11-27T03:01:11;2.60;;;2.40;;
35496;SDS011;21609;49.298;6.844;2022-11-27T03:03:41;3.22;;;2.20;;
35496;SDS011;21609;49.298;6.844;2022-11-27T03:06:11;2.25;;;2.05;;
35496;SDS011;21609;49.298;6.844;2022-11-27T03:08:47;3.15;;;2.47;;
35496;SDS011;21609;49.298;6.844;2022-11-27T03:11:18;1.73;;;1.63;;
35496;SDS011;21609;49.298;6.844;2022-11-27T03:13:45;4.60;;;2.20;;
35496;SDS011;21609;49.298;6.844;2022-11-27T03:19:01;3.30;;;2.78;;
35496;SDS011;21609;49.298;6.844;2022-11-27T03:21:38;2.10;;;1.90;;
35496;SDS011;21609;49.298;6.844;2022-11-27T03:24:10;3.53;;;3.00;;
35496;SDS011;21609;49.298;6.844;2022-11-27T03:26:36;1.40;;;1.30;;
35496;SDS011;21609;49.298;6.844;2022-11-27T03:29:03;2.05;;;1.88;;
35496;SDS011;21609;49.298;6.844;2022-11-27T03:31:33;1.45;;;1.35;;
35496;SDS011;21609;49.298;6.844;2022-11-27T03:34:00;3.05;;;2.70;;
35496;SDS011;21609;49.298;6.844;2022-11-27T03:36:26;1.95;;;1.75;;
35496;SDS011;21609;49.298;6.844;2022-11-27T03:38:51;3.05;;;2.17;;
35496;SDS011;21609;49.298;6.844;2022-11-27T03:43:51;2.10;;;1.90;;
35496;SDS011;21609;49.298;6.844;2022-11-27T03:46:22;2.92;;;2.63;;
35496;SDS011;21609;49.298;6.844;2022-11-27T03:49:13;2.28;;;2.08;;
35496;SDS011;21609;49.298;6.844;2022-11-27T03:52:08;2.58;;;2.38;;
35496;SDS011;21609;49.298;6.844;2022-11-27T04:00:36;1.90;;;1.80;;
35496;SDS011;21609;49.298;6.844;2022-11-27T04:03:07;1.63;;;1.50;;
35496;SDS011;21609;49.298;6.844;2022-11-27T04:05:34;3.20;;;1.88;;
35496;SDS011;21609;49.298;6.844;2022-11-27T04:08:00;2.63;;;2.40;;
35496;SDS011;21609;49.298;6.844;2022-11-27T04:10:25;1.83;;;1.73;;
35496;SDS011;21609;49.298;6.844;2022-11-27T04:12:51;2.22;;;2.03;;
35496;SDS011;21609;49.298;6.844;2022-11-27T04:15:16;1.98;;;1.75;;
35496;SDS011;21609;49.298;6.844;2022-11-27T04:17:42;1.48;;;1.38;;
35496;SDS011;21609;49.298;6.844;2022-11-27T04:20:08;2.60;;;2.25;;
35496;SDS011;21609;49.298;6.844;2022-11-27T04:22:36;2.10;;;1.90;;
35496;SDS011;21609;49.298;6.844;2022-11-27T04:25:02;1.67;;;1.55;;
35496;SDS011;21609;49.298;6.844;2022-11-27T04:27:28;1.80;;;1.70;;
35496;SDS011;21609;49.298;6.844;2022-11-27T04:29:53;1.73;;;1.60;;
35496;SDS011;21609;49.298;6.844;2022-11-27T04:32:19;2.13;;;1.83;;
35496;SDS011;21609;49.298;6.844;2022-11-27T04:34:45;2.72;;;2.03;;
35496;SDS011;21609;49.298;6.844;2022-11-27T04:37:10;2.00;;;1.80;;
35496;SDS011;21609;49.298;6.844;2022-11-27T04:39:36;2.78;;;2.53;;
35496;SDS011;21609;49.298;6.844;2022-11-27T04:42:01;2.28;;;1.85;;
35496;SDS011;21609;49.298;6.844;2022-11-27T04:44:27;2.97;;;2.50;;
35496;SDS011;21609;49.298;6.844;2022-11-27T04:46:52;2.10;;;1.90;;
35496;SDS011;21609;49.298;6.844;2022-11-27T04:49:18;2.42;;;2.17;;
35496;SDS011;21609;49.298;6.844;2022-11-27T04:51:44;1.23;;;1.13;;
35496;SDS011;21609;49.298;6.844;2022-11-27T04:54:09;2.40;;;2.08;;
35496;SDS011;21609;49.298;6.844;2022-11-27T04:56:35;1.95;;;1.80;;
35496;SDS011;21609;49.298;6.844;2022-11-27T04:59:01;2.60;;;2.40;;
35496;SDS011;21609;49.298;6.844;2022-11-27T05:01:27;1.90;;;1.80;;
35496;SDS011;21609;49.298;6.844;2022-11-27T05:03:53;2.22;;;1.90;;
35496;SDS011;21609;49.298;6.844;2022-11-27T05:06:18;2.83;;;1.65;;
35496;SDS011;21609;49.298;6.844;2022-11-27T05:08:46;2.63;;;2.42;;
35496;SDS011;21609;49.298;6.844;2022-11-27T05:11:13;2.03;;;1.55;;
35496;SDS011;21609;49.298;6.844;2022-11-27T05:13:40;2.78;;;2.47;;
35496;SDS011;21609;49.298;6.844;2022-11-27T05:16:06;1.50;;;1.40;;
35496;SDS011;21609;49.298;6.844;2022-11-27T05:18:32;2.92;;;2.63;;
35496;SDS011;21609;49.298;6.844;2022-11-27T05:20:58;2.03;;;1.92;;
35496;SDS011;21609;49.298;6.844;2022-11-27T05:23:29;2.25;;;2.05;;
35496;SDS011;21609;49.298;6.844;2022-11-27T05:25:55;1.67;;;1.52;;
35496;SDS011;21609;49.298;6.844;2022-11-27T05:28:21;2.72;;;2.17;;
35496;SDS011;21609;49.298;6.844;2022-11-27T05:30:47;2.38;;;2.10;;
35496;SDS011;21609;49.298;6.844;2022-11-27T05:33:13;2.83;;;2.05;;
35496;SDS011;21609;49.298;6.844;2022-11-27T05:35:40;2.03;;;1.73;;
35496;SDS011;21609;49.298;6.844;2022-11-27T05:38:07;2.70;;;2.25;;
35496;SDS011;21609;49.298;6.844;2022-11-27T05:40:33;2.38;;;2.17;;
35496;SDS011;21609;49.298;6.844;2022-11-27T05:42:58;2.67;;;2.20;;
35496;SDS011;21609;49.298;6.844;2022-11-27T05:45:24;2.05;;;1.95;;
35496;SDS011;21609;49.298;6.844;2022-11-27T05:47:49;1.98;;;1.85;;
35496;SDS011;21609;49.298;6.844;2022-11-27T05:50:15;1.20;;;1.10;;
35496;SDS011;21609;49.298;6.844;2022-11-27T05:52:41;2.22;;;2.03;;
35496;SDS011;21609;49.298;6.844;2022-11-27T05:55:06;1.48;;;1.38;;
35496;SDS011;21609;49.298;6.844;2022-11-27T05:57:32;2.47;;;2.28;;
35496;SDS011;21609;49.298;6.844;2022-11-27T05:59:58;2.13;;;1.92;;
35496;SDS011;21609;49.298;6.844;2022-11-27T06:02:24;2.20;;;2.00;;
35496;SDS011;21609;49.298;6.844;2022-11-27T06:04:49;2.08;;;1.70;;
35496;SDS011;21609;49.298;6.844;2022-11-27T06:07:15;2.60;;;2.40;;
35496;SDS011;21609;49.298;6.844;2022-11-27T06:09:41;1.80;;;1.70;;
35496;SDS011;21609;49.298;6.844;2022-11-27T06:12:07;2.58;;;2.38;;
35496;SDS011;21609;49.298;6.844;2022-11-27T06:14:33;1.90;;;1.70;;
35496;SDS011;21609;49.298;6.844;2022-11-27T06:16:59;3.28;;;2.40;;
35496;SDS011;21609;49.298;6.844;2022-11-27T06:19:25;1.70;;;1.60;;
35496;SDS011;21609;49.298;6.844;2022-11-27T06:21:51;3.08;;;2.30;;
35496;SDS011;21609;49.298;6.844;2022-11-27T06:24:17;1.98;;;1.40;;
35496;SDS011;21609;49.298;6.844;2022-11-27T06:26:43;3.05;;;2.50;;
35496;SDS011;21609;49.298;6.844;2022-11-27T06:29:10;1.48;;;1.38;;
35496;SDS011;21609;49.298;6.844;2022-11-27T06:31:35;2.60;;;2.40;;
35496;SDS011;21609;49.298;6.844;2022-11-27T06:34:01;2.03;;;1.60;;
35496;SDS011;21609;49.298;6.844;2022-11-27T06:36:28;2.70;;;2.22;;
35496;SDS011;21609;49.298;6.844;2022-11-27T06:38:55;1.67;;;1.40;;
35496;SDS011;21609;49.298;6.844;2022-11-27T06:41:22;6.00;;;2.67;;
35496;SDS011;21609;49.298;6.844;2022-11-27T06:43:49;7.35;;;1.92;;
35496;SDS011;21609;49.298;6.844;2022-11-27T06:46:16;3.42;;;2.53;;
35496;SDS011;21609;49.298;6.844;2022-11-27T06:48:44;3.83;;;2.00;;
35496;SDS011;21609;49.298;6.844;2022-11-27T06:51:11;3.30;;;2.33;;
35496;SDS011;21609;49.298;6.844;2022-11-27T06:53:39;3.63;;;1.90;;
35496;SDS011;21609;49.298;6.844;2022-11-27T06:56:06;7.68;;;3.10;;
35496;SDS011;21609;49.298;6.844;2022-11-27T06:58:37;4.10;;;2.55;;
35496;SDS011;21609;49.298;6.844;2022-11-27T07:01:05;4.82;;;2.45;;
35496;SDS011;21609;49.298;6.844;2022-11-27T07:03:34;1.60;;;1.50;;
35496;SDS011;21609;49.298;6.844;2022-11-27T07:06:00;2.55;;;2.30;;
35496;SDS011;21609;49.298;6.844;2022-11-27T07:08:28;6.60;;;1.90;;
35496;SDS011;21609;49.298;6.844;2022-11-27T07:10:59;4.35;;;2.65;;
35496;SDS011;21609;49.298;6.844;2022-11-27T07:13:27;3.17;;;1.95;;
35496;SDS011;21609;49.298;6.844;2022-11-27T07:15:53;4.18;;;2.67;;
35496;SDS011;21609;49.298;6.844;2022-11-27T07:18:19;5.75;;;2.10;;
35496;SDS011;21609;49.298;6.844;2022-11-27T07:20:49;4.07;;;2.47;;
35496;SDS011;21609;49.298;6.844;2022-11-27T07:23:16;4.32;;;1.90;;
35496;SDS011;21609;49.298;6.844;2022-11-27T07:25:41;3.60;;;2.55;;
35496;SDS011;21609;49.298;6.844;2022-11-27T07:28:07;3.08;;;1.90;;
35496;SDS011;21609;49.298;6.844;2022-11-27T07:30:32;3.58;;;2.72;;
35496;SDS011;21609;49.298;6.844;2022-11-27T07:32:58;2.20;;;2.00;;
35496;SDS011;21609;49.298;6.844;2022-11-27T07:35:23;4.32;;;2.63;;
35496;SDS011;21609;49.298;6.844;2022-11-27T07:37:49;8.27;;;2.20;;
35496;SDS011;21609;49.298;6.844;2022-11-27T07:40:14;2.78;;;2.17;;
35496;SDS011;21609;49.298;6.844;2022-11-27T07:42:42;1.70;;;1.60;;
35496;SDS011;21609;49.298;6.844;2022-11-27T07:45:08;4.93;;;2.70;;
35496;SDS011;21609;49.298;6.844;2022-11-27T07:47:34;2.40;;;2.17;;
35496;SDS011;21609;49.298;6.844;2022-11-27T07:49:59;3.33;;;2.25;;
35496;SDS011;21609;49.298;6.844;2022-11-27T07:52:25;1.90;;;1.70;;
35496;SDS011;21609;49.298;6.844;2022-11-27T07:54:51;3.08;;;2.33;;
35496;SDS011;21609;49.298;6.844;2022-11-27T07:57:17;4.60;;;2.20;;
35496;SDS011;21609;49.298;6.844;2022-11-27T07:59:42;10.75;;;2.28;;
35496;SDS011;21609;49.298;6.844;2022-11-27T08:02:11;2.28;;;1.80;;
35496;SDS011;21609;49.298;6.844;2022-11-27T08:04:37;4.50;;;2.38;;
35496;SDS011;21609;49.298;6.844;2022-11-27T08:07:03;3.58;;;1.90;;
35496;SDS011;21609;49.298;6.844;2022-11-27T08:09:29;3.60;;;2.72;;
35496;SDS011;21609;49.298;6.844;2022-11-27T08:11:54;4.60;;;1.95;;
35496;SDS011;21609;49.298;6.844;2022-11-27T08:14:20;2.17;;;1.77;;
35496;SDS011;21609;49.298;6.844;2022-11-27T08:16:46;2.40;;;2.17;;
35496;SDS011;21609;49.298;6.844;2022-11-27T08:19:11;2.92;;;2.03;;
35496;SDS011;21609;49.298;6.844;2022-11-27T08:21:37;4.15;;;2.30;;
35496;SDS011;21609;49.298;6.844;2022-11-27T08:24:03;5.40;;;1.98;;
35496;SDS011;21609;49.298;6.844;2022-11-27T08:26:29;5.25;;;2.42;;
35496;SDS011;21609;49.298;6.844;2022-11-27T08:28:55;2.83;;;1.90;;
35496;SDS011;21609;49.298;6.844;2022-11-27T08:31:21;4.72;;;2.53;;
35496;SDS011;21609;49.298;6.844;2022-11-27T08:33:47;3.17;;;1.88;;
35496;SDS011;21609;49.298;6.844;2022-11-27T08:36:13;4.63;;;2.30;;
35496;SDS011;21609;49.298;6.844;2022-11-27T08:38:39;3.30;;;2.50;;
35496;SDS011;21609;49.298;6.844;2022-11-27T08:41:05;3.33;;;2.20;;
35496;SDS011;21609;49.298;6.844;2022-11-27T08:43:31;3.40;;;1.88;;
35496;SDS011;21609;49.298;6.844;2022-11-27T08:45:57;4.15;;;2.58;;
35496;SDS011;21609;49.298;6.844;2022-11-27T08:48:23;2.33;;;1.90;;
35496;SDS011;21609;49.298;6.844;2022-11-27T08:50:49;3.25;;;1.80;;
35496;SDS011;21609;49.298;6.844;2022-11-27T08:53:16;7.30;;;3.13;;
35496;SDS011;21609;49.298;6.844;2022-11-27T08:55:42;3.28;;;1.63;;
35496;SDS011;21609;49.298;6.844;2022-11-27T08:58:08;4.07;;;2.42;;
35496;SDS011;21609;49.298;6.844;2022-11-27T09:00:34;3.30;;;2.17;;
35496;SDS011;21609;49.298;6.844;2022-11-27T09:03:01;6.82;;;2.30;;
35496;SDS011;21609;49.298;6.844;2022-11-27T09:05:27;1.95;;;1.75;;
35496;SDS011;21609;49.298;6.844;2022-11-27T09:07:53;2.20;;;1.77;;
35496;SDS011;21609;49.298;6.844;2022-11-27T09:10:19;2.28;;;1.98;;
35496;SDS011;21609;49.298;6.844;2022-11-27T09:12:48;5.70;;;1.67;;
35496;SDS011;21609;49.298;6.844;2022-11-27T09:15:14;2.78;;;1.98;;
35496;SDS011;21609;49.298;6.844;2022-11-27T09:17:40;5.57;;;2.10;;
35496;SDS011;21609;49.298;6.844;2022-11-27T09:20:06;1.70;;;1.60;;
35496;SDS011;21609;49.298;6.844;2022-11-27T09:22:32;3.80;;;1.70;;
35496;SDS011;21609;49.298;6.844;2022-11-27T09:24:58;2.60;;;1.50;;
35496;SDS011;21609;49.298;6.844;2022-11-27T09:27:23;1.98;;;1.67;;
35496;SDS011;21609;49.298;6.844;2022-11-27T09:29:49;4.40;;;2.83;;
35496;SDS011;21609;49.298;6.844;2022-11-27T09:32:15;2.80;;;1.83;;
35496;SDS011;21609;49.298;6.844;2022-11-27T09:34:40;2.47;;;1.60;;
35496;SDS011;21609;49.298;6.844;2022-11-27T09:37:06;4.35;;;2.10;;
35496;SDS011;21609;49.298;6.844;2022-11-27T09:39:33;3.63;;;1.90;;
35496;SDS011;21609;49.298;6.844;2022-11-27T09:41:59;3.88;;;1.80;;
35496;SDS011;21609;49.298;6.844;2022-11-27T09:47:14;2.03;;;1.65;;
35496;SDS011;21609;49.298;6.844;2022-11-27T09:50:12;2.63;;;1.85;;
35496;SDS011;21609;49.298;6.844;2022-11-27T09:55:56;4.50;;;1.95;;
35496;SDS011;21609;49.298;6.844;2022-11-27T09:58:12;2.50;;;2.30;;
35496;SDS011;21609;49.298;6.844;2022-11-27T10:00:38;2.05;;;1.50;;
35496;SDS011;21609;49.298;6.844;2022-11-27T10:03:06;2.95;;;1.90;;
35496;SDS011;21609;49.298;6.844;2022-11-27T10:05:41;3.53;;;2.47;;
35496;SDS011;21609;49.298;6.844;2022-11-27T10:08:38;2.15;;;1.95;;
35496;SDS011;21609;49.298;6.844;2022-11-27T10:11:17;1.70;;;1.58;;
35496;SDS011;21609;49.298;6.844;2022-11-27T10:16:43;2.55;;;2.10;;
35496;SDS011;21609;49.298;6.844;2022-11-27T10:19:19;4.32;;;2.30;;
35496;SDS011;21609;49.298;6.844;2022-11-27T10:22:01;2.78;;;2.03;;
35496;SDS011;21609;49.298;6.844;2022-11-27T10:27:38;2.60;;;2.10;;
35496;SDS011;21609;49.298;6.844;2022-11-27T10:30:14;2.40;;;2.08;;
35496;SDS011;21609;49.298;6.844;2022-11-27T10:32:40;3.55;;;1.95;;
35496;SDS011;21609;49.298;6.844;2022-11-27T10:35:12;3.65;;;2.13;;
35496;SDS011;21609;49.298;6.844;2022-11-27T10:38:03;2.72;;;2.17;;
35496;SDS011;21609;49.298;6.844;2022-11-27T10:45:49;2.75;;;2.25;;
35496;SDS011;21609;49.298;6.844;2022-11-27T10:48:17;3.85;;;3.17;;
35496;SDS011;21609;49.298;6.844;2022-11-27T10:50:44;11.45;;;3.95;;
35496;SDS011;21609;49.298;6.844;2022-11-27T10:53:31;12.50;;;7.97;;
35496;SDS011;21609;49.298;6.844;2022-11-27T11:01:47;10.05;;;7.78;;
35496;SDS011;21609;49.298;6.844;2022-11-27T11:04:14;8.07;;;6.53;;
35496;SDS011;21609;49.298;6.844;2022-11-27T11:06:45;8.88;;;6.45;;
35496;SDS011;21609;49.298;6.844;2022-11-27T11:09:15;7.57;;;6.07;;
35496;SDS011;21609;49.298;6.844;2022-11-27T11:11:44;6.72;;;5.50;;
35496;SDS011;21609;49.298;6.844;2022-11-27T11:14:20;7.28;;;5.35;;
35496;SDS011;21609;49.298;6.844;2022-11-27T11:16:50;6.70;;;5.47;;
35496;SDS011;21609;49.298;6.844;2022-11-27T11:19:35;5.63;;;4.78;;
35496;SDS011;21609;49.298;6.844;2022-11-27T11:22:03;5.55;;;4.78;;
35496;SDS011;21609;49.298;6.844;2022-11-27T11:24:37;4.88;;;3.75;;
35496;SDS011;21609;49.298;6.844;2022-11-27T11:27:15;6.05;;;4.45;;
35496;SDS011;21609;49.298;6.844;2022-11-27T11:29:49;4.68;;;4.20;;
35496;SDS011;21609;49.298;6.844;2022-11-27T11:34:45;4.35;;;3.78;;
35496;SDS011;21609;49.298;6.844;2022-11-27T11:37:21;4.20;;;3.80;;
35496;SDS011;21609;49.298;6.844;2022-11-27T11:42:23;5.05;;;4.05;;
35496;SDS011;21609;49.298;6.844;2022-11-27T11:44:54;6.28;;;3.60;;
35496;SDS011;21609;49.298;6.844;2022-11-27T11:47:30;3.40;;;3.10;;
35496;SDS011;21609;49.298;6.844;2022-11-27T11:49:57;4.35;;;3.05;;
35496;SDS011;21609;49.298;6.844;2022-11-27T11:52:29;6.63;;;3.63;;
35496;SDS011;21609;49.298;6.844;2022-11-27T12:00:53;4.35;;;3.38;;
35496;SDS011;21609;49.298;6.844;2022-11-27T12:03:31;3.38;;;2.95;;
35496;SDS011;21609;49.298;6.844;2022-11-27T12:09:02;3.78;;;3.35;;
35496;SDS011;21609;49.298;6.844;2022-11-27T12:11:39;4.25;;;2.90;;
35496;SDS011;21609;49.298;6.844;2022-11-27T12:44:01;9.00;;;8.30;;
35496;SDS011;21609;49.298;6.844;2022-11-27T12:49:12;9.50;;;8.77;;
35496;SDS011;21609;49.298;6.844;2022-11-27T12:51:53;8.60;;;7.90;;
35496;SDS011;21609;49.298;6.844;2022-11-27T12:54:29;7.65;;;7.15;;
35496;SDS011;21609;49.298;6.844;2022-11-27T12:57:20;8.10;;;7.40;;
35496;SDS011;21609;49.298;6.844;2022-11-27T12:59:57;7.00;;;6.50;;
35496;SDS011;21609;49.298;6.844;2022-11-27T13:02:28;8.98;;;7.53;;
35496;SDS011;21609;49.298;6.844;2022-11-27T13:05:06;7.25;;;6.70;;
35496;SDS011;21609;49.298;6.844;2022-11-27T13:07:45;6.88;;;6.38;;
35496;SDS011;21609;49.298;6.844;2022-11-27T13:10:26;7.72;;;7.03;;
35496;SDS011;21609;49.298;6.844;2022-11-27T13:13:13;8.10;;;7.40;;
35496;SDS011;21609;49.298;6.844;2022-11-27T13:15:56;7.53;;;6.82;;
35496;SDS011;21609;49.298;6.844;2022-11-27T13:18:42;7.53;;;6.75;;
35496;SDS011;21609;49.298;6.844;2022-11-27T13:21:24;7.60;;;6.78;;
35496;SDS011;21609;49.298;6.844;2022-11-27T13:23:52;7.78;;;7.07;;
35496;SDS011;21609;49.298;6.844;2022-11-27T13:26:20;7.55;;;6.95;;
35496;SDS011;21609;49.298;6.844;2022-11-27T13:29:12;8.10;;;7.18;;
35496;SDS011;21609;49.298;6.844;2022-11-27T13:31:41;6.63;;;6.13;;
35496;SDS011;21609;49.298;6.844;2022-11-27T13:34:15;6.68;;;6.15;;
35496;SDS011;21609;49.298;6.844;2022-11-27T13:36:45;7.10;;;6.50;;
35496;SDS011;21609;49.298;6.844;2022-11-27T13:42:22;6.68;;;6.05;;
35496;SDS011;21609;49.298;6.844;2022-11-27T13:44:55;6.63;;;6.07;;
35496;SDS011;21609;49.298;6.844;2022-11-27T13:47:27;7.05;;;6.32;;
35496;SDS011;21609;49.298;6.844;2022-11-27T13:52:33;5.85;;;5.35;;
35496;SDS011;21609;49.298;6.844;2022-11-27T13:55:00;6.85;;;5.97;;
35496;SDS011;21609;49.298;6.844;2022-11-27T13:57:27;5.45;;;4.95;;
35496;SDS011;21609;49.298;6.844;2022-11-27T14:05:12;5.82;;;5.32;;
35496;SDS011;21609;49.298;6.844;2022-11-27T14:07:49;6.10;;;5.57;;
35496;SDS011;21609;49.298;6.844;2022-11-27T14:10:21;4.97;;;4.60;;
35496;SDS011;21609;49.298;6.844;2022-11-27T14:12:56;4.80;;;4.40;;
35496;SDS011;21609;49.298;6.844;2022-11-27T14:15:25;7.00;;;5.50;;
35496;SDS011;21609;49.298;6.844;2022-11-27T14:17:53;5.35;;;4.50;;
35496;SDS011;21609;49.298;6.844;2022-11-27T14:20:34;5.07;;;4.68;;
35496;SDS011;21609;49.298;6.844;2022-11-27T14:23:08;4.72;;;4.43;;
35496;SDS011;21609;49.298;6.844;2022-11-27T14:25:34;4.70;;;4.38;;
35496;SDS011;21609;49.298;6.844;2022-11-27T14:28:19;5.20;;;4.70;;
35496;SDS011;21609;49.298;6.844;2022-11-27T14:30:50;5.53;;;5.03;;
35496;SDS011;21609;49.298;6.844;2022-11-27T14:35:46;5.82;;;4.80;;
35496;SDS011;21609;49.298;6.844;2022-11-27T14:38:13;5.55;;;5.10;;
35496;SDS011;21609;49.298;6.844;2022-11-27T14:40:39;5.47;;;4.65;;
35496;SDS011;21609;49.298;6.844;2022-11-27T14:43:06;4.55;;;4.15;;
35496;SDS011;21609;49.298;6.844;2022-11-27T14:45:38;4.72;;;4.32;;
35496;SDS011;21609;49.298;6.844;2022-11-27T14:48:11;6.47;;;4.93;;
35496;SDS011;21609;49.298;6.844;2022-11-27T14:50:43;5.03;;;4.50;;
35496;SDS011;21609;49.298;6.844;2022-11-27T14:53:08;8.75;;;4.85;;
35496;SDS011;21609;49.298;6.844;2022-11-27T14:55:36;5.18;;;4.70;;
35496;SDS011;21609;49.298;6.844;2022-11-27T14:58:01;5.00;;;4.60;;
35496;SDS011;21609;49.298;6.844;2022-11-27T15:00:27;7.82;;;4.47;;
35496;SDS011;21609;49.298;6.844;2022-11-27T15:02:54;4.75;;;4.28;;
35496;SDS011;21609;49.298;6.844;2022-11-27T15:05:30;5.65;;;4.05;;
35496;SDS011;21609;49.298;6.844;2022-11-27T15:07:56;5.05;;;4.65;;
35496;SDS011;21609;49.298;6.844;2022-11-27T15:10:34;4.70;;;4.15;;
35496;SDS011;21609;49.298;6.844;2022-11-27T15:13:02;4.25;;;3.95;;
35496;SDS011;21609;49.298;6.844;2022-11-27T15:15:33;4.40;;;4.03;;
35496;SDS011;21609;49.298;6.844;2022-11-27T15:18:05;4.43;;;4.03;;
35496;SDS011;21609;49.298;6.844;2022-11-27T15:20:37;4.88;;;4.43;;
35496;SDS011;21609;49.298;6.844;2022-11-27T15:23:14;4.45;;;4.05;;
35496;SDS011;21609;49.298;6.844;2022-11-27T15:26:11;10.63;;;4.07;;
35496;SDS011;21609;49.298;6.844;2022-11-27T15:28:41;4.10;;;3.80;;
35496;SDS011;21609;49.298;6.844;2022-11-27T15:33:55;4.82;;;3.92;;
35496;SDS011;21609;49.298;6.844;2022-11-27T15:39:15;6.53;;;4.00;;
35496;SDS011;21609;49.298;6.844;2022-11-27T15:41:54;3.97;;;3.67;;
35496;SDS011;21609;49.298;6.844;2022-11-27T15:44:25;4.50;;;3.60;;
35496;SDS011;21609;49.298;6.844;2022-11-27T15:46:52;4.35;;;3.75;;
35496;SDS011;21609;49.298;6.844;2022-11-27T15:49:19;4.18;;;3.80;;
35496;SDS011;21609;49.298;6.844;2022-11-27T15:51:46;4.20;;;3.80;;
35496;SDS011;21609;49.298;6.844;2022-11-27T15:54:12;4.00;;;3.60;;
35496;SDS011;21609;49.298;6.844;2022-11-27T15:56:38;4.22;;;3.92;;
35496;SDS011;21609;49.298;6.844;2022-11-27T15:59:03;4.00;;;3.70;;
35496;SDS011;21609;49.298;6.844;2022-11-27T16:01:29;3.80;;;3.50;;
35496;SDS011;21609;49.298;6.844;2022-11-27T16:03:54;4.13;;;3.72;;
35496;SDS011;21609;49.298;6.844;2022-11-27T16:06:20;3.83;;;3.47;;
35496;SDS011;21609;49.298;6.844;2022-11-27T16:08:52;3.78;;;3.47;;
35496;SDS011;21609;49.298;6.844;2022-11-27T16:13:44;3.55;;;3.25;;
35496;SDS011;21609;49.298;6.844;2022-11-27T16:16:10;3.95;;;3.65;;
35496;SDS011;21609;49.298;6.844;2022-11-27T16:18:35;4.60;;;4.20;;
35496;SDS011;21609;49.298;6.844;2022-11-27T16:21:05;3.95;;;3.65;;
35496;SDS011;21609;49.298;6.844;2022-11-27T16:23:32;3.40;;;3.10;;
35496;SDS011;21609;49.298;6.844;2022-11-27T16:25:58;4.00;;;3.70;;
35496;SDS011;21609;49.298;6.844;2022-11-27T16:28:24;3.80;;;3.33;;
35496;SDS011;21609;49.298;6.844;2022-11-27T16:30:51;3.35;;;3.15;;
35496;SDS011;21609;49.298;6.844;2022-11-27T16:33:18;4.07;;;3.53;;
35496;SDS011;21609;49.298;6.844;2022-11-27T16:35:45;3.85;;;3.55;;
35496;SDS011;21609;49.298;6.844;2022-11-27T16:38:11;3.75;;;3.45;;
35496;SDS011;21609;49.298;6.844;2022-11-27T16:40:37;3.67;;;3.38;;
35496;SDS011;21609;49.298;6.844;2022-11-27T16:43:02;4.75;;;3.50;;
35496;SDS011;21609;49.298;6.844;2022-11-27T16:45:28;4.22;;;3.45;;
35496;SDS011;21609;49.298;6.844;2022-11-27T16:47:54;3.78;;;3.22;;
35496;SDS011;21609;49.298;6.844;2022-11-27T16:50:20;5.15;;;3.60;;
35496;SDS011;21609;49.298;6.844;2022-11-27T16:52:45;3.60;;;3.30;;
35496;SDS011;21609;49.298;6.844;2022-11-27T16:55:12;3.83;;;3.10;;
35496;SDS011;21609;49.298;6.844;2022-11-27T16:57:38;3.83;;;3.50;;
35496;SDS011;21609;49.298;6.844;2022-11-27T17:00:04;3.35;;;3.13;;
35496;SDS011;21609;49.298;6.844;2022-11-27T17:02:30;7.05;;;3.55;;
35496;SDS011;21609;49.298;6.844;2022-11-27T17:04:56;3.47;;;3.20;;